Chippewa County International Airport
KCIU : rendu visible

Aérodrome :











RETROUVEZ-NOUS SUR...

 
LOGIN :

S'inscrire | Disclaimer

   EN    FR    IT 

 









Légende :    VFR   VFR Marginal   IFR   IFR Intensif   IFR Très Intensif
Visi : 
Plafond : 
>= 8 km
>= 3000ft
5 à 8 km
1000 à 3000 ft
1500m à 5 km
500 à 1000 ft
800 à 1500m
200 à 500 ft
< 800m
< 200 ft
Symboles :   Orages  Brouillard  Fortes neiges  Fortes précipitations  Vent > 20 kt






- Altitude de l'aérodrome : 800 ft
- Code IATA : CIU


KCIU - Chippewa County International

DERNIER METAR :
  • 162356Z AUTO 13007KT 10SM CLR M03/M07 A3033 RMK AO2 SLP287 T10281067 10006 21033 56016 FZRANO

METARs EXPIRÉS :
  • 162256Z AUTO 13007KT 10SM CLR M03/M07 A3034 RMK AO2 SLP289 T10331067 FZRANO
  • 162156Z AUTO 15008KT 10SM CLR M01/M06 A3037 RMK AO2 SLP296 T10111061 FZRANO

TAF N/A



MET'MAP, la Météo Aéronautique d'un coup d'oeil ! - Copyright ORBIFLY Décembre 2007 - Disclaimer

ORBIFLY MET'MAP TEAM :

Programmation & Développement : Alexandra Zaïnal
Conception & Développement : Baudouin d'Aumeries
Co-Programmation & Développement : Marc-Olivier Méhu
Soutien technique & logistique : Manuel Goepfert

Contact : metmap@orbifly.com




SOURCES & CREDITS :

   NOAA       Earth
Advisory